Time;durP1;ratioP1;P1;durP2;ratioP2;P2;SDS_P1;SDS_P2;PMS_P1;PMS_P2;Temp;Humidity;BMP_temperature;BMP_pressure;BME280_temperature;BME280_humidity;BME280_pressure;Samples;Min_cycle;Max_cycle;Signal;HPM_P1;HPM_P2
2022/06/22 00:01:27;;;;;;;3.73;2.97;;;17.60;99.90;;;;;;5031510;28;20526;-72
2022/06/22 00:03:59;;;;;;;3.20;2.53;;;17.60;99.90;;;;;;5032137;28;20478;-72
2022/06/22 00:06:31;;;;;;;3.23;2.93;;;17.60;99.90;;;;;;5031595;28;21053;-72
2022/06/22 00:08:58;;;;;;;4.53;2.50;;;17.60;99.90;;;;;;5031915;28;20427;-72
2022/06/22 00:11:26;;;;;;;8.23;3.10;;;17.60;99.90;;;;;;5032054;28;20444;-72
2022/06/22 00:13:55;;;;;;;3.70;2.80;;;17.50;99.90;;;;;;5031989;28;20449;-72
2022/06/22 00:16:26;;;;;;;3.10;2.80;;;17.50;99.90;;;;;;5031911;28;20968;-72
2022/06/22 00:18:54;;;;;;;3.63;3.33;;;17.50;99.90;;;;;;5032072;28;20450;-72
2022/06/22 00:21:27;;;;;;;5.83;3.10;;;17.40;99.90;;;;;;5031101;28;20539;-72
2022/06/22 00:23:56;;;;;;;2.90;2.70;;;17.40;99.90;;;;;;5029117;28;20515;-72
2022/06/22 00:26:36;;;;;;;3.37;3.07;;;17.40;99.90;;;;;;5031871;28;20536;-72
2022/06/22 00:29:22;;;;;;;3.00;2.80;;;17.30;99.90;;;;;;5031276;28;20938;-72
2022/06/22 00:32:14;;;;;;;3.07;2.77;;;17.30;99.90;;;;;;5024797;28;20459;-72
2022/06/22 00:34:41;;;;;;;4.50;3.10;;;17.20;99.90;;;;;;5030936;28;20452;-72
2022/06/22 00:37:15;;;;;;;3.67;3.03;;;17.20;99.90;;;;;;5030727;28;20916;-72
2022/06/22 00:39:44;;;;;;;2.80;2.60;;;17.20;99.90;;;;;;5031245;28;20449;-72
2022/06/22 00:42:31;;;;;;;3.20;2.90;;;17.20;99.90;;;;;;5031388;28;20446;-72
2022/06/22 00:45:02;;;;;;;3.57;2.53;;;17.20;99.90;;;;;;5029103;28;20882;-72
2022/06/22 00:47:32;;;;;;;4.70;2.70;;;17.20;99.90;;;;;;5031179;28;20836;-72
2022/06/22 00:50:05;;;;;;;4.37;3.30;;;17.10;99.90;;;;;;5031595;28;20416;-72
2022/06/22 00:52:38;;;;;;;5.00;3.07;;;17.10;99.90;;;;;;5028926;28;20461;-72
2022/06/22 00:55:15;;;;;;;4.30;3.13;;;17.10;99.90;;;;;;5030962;28;20457;-72
2022/06/22 00:57:48;;;;;;;5.07;2.87;;;17.00;99.90;;;;;;5030973;28;20435;-72
2022/06/22 01:00:20;;;;;;;7.93;3.40;;;17.00;99.90;;;;;;5031275;28;20445;-72
2022/06/22 01:02:53;;;;;;;5.60;3.13;;;17.00;99.90;;;;;;5031456;28;20782;-72
2022/06/22 01:05:28;;;;;;;6.30;3.30;;;17.00;99.90;;;;;;5028398;28;20452;-72
2022/06/22 01:08:07;;;;;;;3.60;2.87;;;16.90;99.90;;;;;;5028051;28;20420;-72
2022/06/22 01:10:38;;;;;;;6.93;3.20;;;17.30;99.90;;;;;;5030305;28;20523;-72
2022/06/22 01:13:14;;;;;;;5.73;3.40;;;16.90;99.90;;;;;;5025368;28;20461;-72
2022/06/22 01:15:45;;;;;;;3.20;2.83;;;16.90;99.90;;;;;;5029416;28;20445;-72
2022/06/22 01:18:15;;;;;;;3.93;2.80;;;16.80;99.90;;;;;;5030490;28;20428;-72
2022/06/22 01:20:55;;;;;;;3.00;2.80;;;16.80;99.90;;;;;;5028228;28;20523;-72
2022/06/22 01:23:55;;;;;;;4.27;3.17;;;16.80;99.90;;;;;;5029146;28;20428;-72
2022/06/22 01:26:41;;;;;;;3.60;2.93;;;16.70;99.90;;;;;;5029712;28;20456;-72
2022/06/22 01:29:15;;;;;;;4.30;3.20;;;16.70;99.90;;;;;;5029742;28;20446;-72
2022/06/22 01:31:46;;;;;;;4.00;2.83;;;16.70;99.90;;;;;;5029087;28;20495;-72
2022/06/22 01:34:16;;;;;;;4.50;3.20;;;16.60;99.90;;;;;;5028259;28;20432;-72
2022/06/22 01:36:43;;;;;;;4.10;3.37;;;16.60;99.90;;;;;;5030462;28;21707;-72
2022/06/22 01:39:12;;;;;;;3.50;2.60;;;16.60;99.90;;;;;;5029197;28;20447;-72
2022/06/22 01:41:45;;;;;;;3.10;2.80;;;16.50;99.90;;;;;;5028840;28;21066;-72
2022/06/22 01:44:18;;;;;;;3.87;2.90;;;16.50;99.90;;;;;;5029178;28;20428;-72
2022/06/22 01:47:09;;;;;;;3.70;2.80;;;16.50;99.90;;;;;;5029406;28;20452;-72
2022/06/22 01:49:42;;;;;;;5.07;3.30;;;16.50;99.90;;;;;;5027878;28;20443;-72
2022/06/22 01:52:14;;;;;;;5.40;3.07;;;16.40;99.90;;;;;;5028500;28;20473;-72
2022/06/22 01:54:48;;;;;;;4.03;3.37;;;16.30;99.90;;;;;;5028828;28;20849;-72
2022/06/22 01:57:21;;;;;;;3.33;3.03;;;16.30;99.90;;;;;;5029242;28;20461;-72
2022/06/22 01:59:56;;;;;;;6.00;3.27;;;16.20;99.90;;;;;;5029424;28;20454;-72
2022/06/22 02:02:27;;;;;;;3.47;3.17;;;16.20;99.90;;;;;;5028486;28;20452;-72
2022/06/22 02:05:00;;;;;;;4.60;3.53;;;16.20;99.90;;;;;;5028865;28;20480;-72
2022/06/22 02:07:44;;;;;;;4.93;3.13;;;16.10;99.90;;;;;;5028571;28;20449;-72
2022/06/22 02:10:23;;;;;;;5.53;3.20;;;16.10;99.90;;;;;;5028757;28;20471;-72
2022/06/22 02:12:57;;;;;;;5.00;2.90;;;16.10;99.90;;;;;;5025577;28;20456;-72
2022/06/22 02:15:30;;;;;;;5.07;3.90;;;16.20;99.90;;;;;;5028889;28;20515;-72
2022/06/22 02:17:58;;;;;;;5.97;3.60;;;16.10;99.90;;;;;;5029909;28;20490;-72
2022/06/22 02:20:30;;;;;;;6.53;3.27;;;16.10;99.90;;;;;;5028347;28;20469;-72
2022/06/22 02:23:05;;;;;;;3.63;2.60;;;16.10;99.90;;;;;;5029575;28;20453;-72
2022/06/22 02:25:36;;;;;;;3.27;2.97;;;16.00;99.90;;;;;;5028831;28;20467;-72
2022/06/22 02:28:03;;;;;;;3.43;3.13;;;16.10;99.90;;;;;;5029412;28;20458;-72
2022/06/22 02:30:32;;;;;;;7.30;3.60;;;16.10;99.90;;;;;;5028797;28;20544;-72
2022/06/22 02:32:59;;;;;;;6.70;3.50;;;16.10;99.90;;;;;;5027990;28;20966;-72
2022/06/22 02:35:25;;;;;;;3.67;3.27;;;16.00;99.90;;;;;;5025051;28;20968;-72
2022/06/22 02:37:56;;;;;;;3.27;3.00;;;16.00;99.90;;;;;;5029285;28;20796;-72
2022/06/22 02:40:27;;;;;;;7.80;3.70;;;16.00;99.90;;;;;;5027540;28;20491;-72
2022/06/22 02:45:42;;;;;;;3.63;3.33;;;15.90;99.90;;;;;;5028378;28;20459;-72
2022/06/22 02:48:26;;;;;;;3.87;2.90;;;15.80;99.90;;;;;;5029552;28;20912;-72
2022/06/22 02:51:08;;;;;;;3.83;3.20;;;15.80;99.90;;;;;;5027848;28;21046;-72
2022/06/22 02:53:37;;;;;;;5.17;3.30;;;15.80;99.90;;;;;;5029398;28;20519;-72
2022/06/22 02:56:08;;;;;;;3.60;3.40;;;15.80;99.90;;;;;;5029438;28;20464;-72
2022/06/22 02:58:36;;;;;;;4.30;3.30;;;15.70;99.90;;;;;;5028987;28;20445;-73
2022/06/22 03:01:12;;;;;;;3.50;3.20;;;15.70;99.90;;;;;;5025034;28;20515;-73
2022/06/22 03:03:39;;;;;;;4.07;3.10;;;15.70;99.90;;;;;;5026652;28;20817;-73
2022/06/22 03:06:10;;;;;;;3.33;3.03;;;15.70;99.90;;;;;;5029358;28;20477;-72
2022/06/22 03:08:38;;;;;;;5.53;3.60;;;15.70;99.90;;;;;;5022267;28;20953;-71
2022/06/22 03:11:07;;;;;;;3.77;3.40;;;15.70;99.90;;;;;;5023752;28;20447;-72
2022/06/22 03:13:39;;;;;;;5.87;3.50;;;15.60;99.90;;;;;;5022936;28;20457;-71
2022/06/22 03:16:10;;;;;;;3.87;3.17;;;15.60;99.90;;;;;;5029237;28;20449;-71
2022/06/22 03:18:41;;;;;;;3.60;3.17;;;15.60;99.90;;;;;;5022115;28;20500;-72
2022/06/22 03:21:12;;;;;;;4.10;3.60;;;15.60;99.90;;;;;;5025453;28;20473;-72
2022/06/22 03:23:46;;;;;;;6.57;3.67;;;15.60;99.90;;;;;;5028970;28;20507;-72
2022/06/22 03:26:16;;;;;;;4.67;3.33;;;15.60;99.90;;;;;;5028518;28;20612;-72
2022/06/22 03:28:48;;;;;;;3.73;3.33;;;15.50;99.90;;;;;;5025314;28;20461;-70
2022/06/22 03:31:23;;;;;;;4.37;3.50;;;15.50;99.90;;;;;;5025397;28;20510;-70
2022/06/22 03:33:54;;;;;;;5.67;3.10;;;15.50;99.90;;;;;;5025460;28;20503;-70
2022/06/22 03:36:25;;;;;;;4.00;3.33;;;15.50;99.90;;;;;;5030177;28;20873;-70
2022/06/22 03:38:56;;;;;;;3.63;3.33;;;15.40;99.90;;;;;;5029491;28;20501;-70
2022/06/22 03:41:27;;;;;;;3.80;3.50;;;15.40;99.90;;;;;;5028743;28;21052;-69
2022/06/22 03:43:57;;;;;;;4.40;3.50;;;15.40;99.90;;;;;;5029868;28;20915;-70
2022/06/22 03:46:30;;;;;;;3.80;3.50;;;15.40;99.90;;;;;;5030635;28;20505;-70
2022/06/22 03:49:01;;;;;;;7.37;3.67;;;15.40;99.90;;;;;;5031727;28;20850;-70
2022/06/22 03:51:32;;;;;;;5.73;3.70;;;15.40;99.90;;;;;;5025902;28;20469;-70
2022/06/22 03:54:03;;;;;;;4.33;3.10;;;15.40;99.90;;;;;;5030330;28;20453;-70
2022/06/22 03:56:32;;;;;;;5.30;3.60;;;15.50;99.90;;;;;;5031654;28;20506;-69
2022/06/22 03:59:01;;;;;;;5.27;4.13;;;15.50;99.90;;;;;;5023661;28;20872;-70
2022/06/22 04:01:29;;;;;;;5.00;3.63;;;15.50;99.90;;;;;;5027926;28;20465;-70
2022/06/22 04:03:57;;;;;;;3.80;3.40;;;15.50;99.90;;;;;;5032130;28;20453;-70
2022/06/22 04:06:30;;;;;;;3.57;3.30;;;15.60;99.90;;;;;;5025371;28;20502;-70
2022/06/22 04:08:56;;;;;;;3.93;3.53;;;15.60;99.90;;;;;;5026297;28;20536;-70
2022/06/22 04:11:27;;;;;;;6.80;4.10;;;15.60;99.90;;;;;;5025144;28;20913;-70
2022/06/22 04:14:02;;;;;;;5.90;4.87;;;15.70;99.90;;;;;;5025400;28;20457;-70
2022/06/22 04:16:34;;;;;;;3.87;3.07;;;15.70;99.90;;;;;;5028477;28;20420;-70
2022/06/22 04:19:05;;;;;;;40.37;4.90;;;15.80;99.90;;;;;;5026605;28;20829;-70
2022/06/22 04:21:35;;;;;;;3.93;3.33;;;15.90;99.90;;;;;;5029846;28;20540;-71
2022/06/22 04:24:11;;;;;;;12.00;3.50;;;15.90;99.90;;;;;;5023134;28;20421;-71
2022/06/22 04:26:42;;;;;;;5.97;3.40;;;16.00;99.90;;;;;;5024674;28;20825;-71
2022/06/22 04:29:16;;;;;;;7.13;3.53;;;16.00;99.90;;;;;;5025084;28;20818;-70
2022/06/22 04:31:52;;;;;;;5.93;3.43;;;16.10;99.90;;;;;;5028754;28;20509;-70
2022/06/22 04:34:30;;;;;;;4.43;3.30;;;16.20;99.90;;;;;;5027584;28;20431;-70
2022/06/22 04:36:58;;;;;;;6.27;3.27;;;16.20;99.90;;;;;;5029168;28;20427;-71
2022/06/22 04:39:32;;;;;;;5.70;3.23;;;16.20;99.90;;;;;;5032228;28;20442;-70
2022/06/22 04:42:01;;;;;;;3.30;3.10;;;16.20;99.90;;;;;;5024994;28;21059;-69
2022/06/22 04:44:31;;;;;;;3.97;3.27;;;16.10;99.90;;;;;;5029658;28;20449;-69
2022/06/22 04:47:06;;;;;;;7.00;3.60;;;16.20;99.90;;;;;;5025387;28;20453;-70
2022/06/22 04:49:37;;;;;;;6.10;3.53;;;16.20;99.90;;;;;;5030493;28;20485;-70
2022/06/22 04:52:13;;;;;;;4.57;3.57;;;16.20;99.90;;;;;;5029296;28;20874;-71
2022/06/22 04:54:42;;;;;;;3.40;3.10;;;16.30;99.90;;;;;;5025963;28;20449;-71
2022/06/22 04:57:16;;;;;;;3.70;3.17;;;16.40;99.90;;;;;;5030672;28;20448;-71
2022/06/22 04:59:43;;;;;;;7.50;3.13;;;16.50;99.90;;;;;;5025964;28;20564;-71
2022/06/22 05:02:14;;;;;;;4.03;3.73;;;16.60;99.90;;;;;;5028717;28;20880;-71
2022/06/22 05:04:44;;;;;;;3.50;3.30;;;16.80;99.90;;;;;;5025974;28;20433;-71
2022/06/22 05:07:28;;;;;;;3.73;3.47;;;16.90;99.90;;;;;;5028735;28;21060;-71
2022/06/22 05:10:01;;;;;;;7.50;3.40;;;17.10;99.90;;;;;;5027100;28;20828;-71
2022/06/22 05:12:30;;;;;;;4.03;3.33;;;17.20;99.90;;;;;;5031323;28;20432;-71
2022/06/22 05:14:58;;;;;;;8.30;3.23;;;17.30;99.90;;;;;;5029489;28;20423;-71
2022/06/22 05:17:30;;;;;;;5.20;3.50;;;17.40;99.90;;;;;;5031735;28;20428;-71
2022/06/22 05:20:01;;;;;;;5.10;3.30;;;17.50;99.90;;;;;;5032147;28;20912;-71
2022/06/22 05:22:28;;;;;;;3.67;3.37;;;17.60;99.90;;;;;;5032515;28;20774;-71
2022/06/22 05:24:59;;;;;;;3.30;3.10;;;17.70;99.90;;;;;;5032839;28;20449;-71
2022/06/22 05:27:30;;;;;;;3.13;2.80;;;17.70;99.90;;;;;;5032315;28;20481;-71
2022/06/22 05:30:00;;;;;;;5.10;3.17;;;17.80;99.90;;;;;;5032627;28;20432;-71
2022/06/22 05:32:33;;;;;;;4.40;3.47;;;17.80;99.90;;;;;;5032370;28;20993;-71
2022/06/22 05:35:02;;;;;;;3.10;2.90;;;17.80;99.90;;;;;;5032239;28;20928;-70
2022/06/22 05:37:32;;;;;;;3.97;3.50;;;17.90;99.90;;;;;;5032076;28;20416;-69
2022/06/22 05:39:59;;;;;;;4.90;3.37;;;18.00;99.90;;;;;;5031905;28;20460;-70
2022/06/22 05:42:28;;;;;;;4.40;3.10;;;18.10;99.90;;;;;;5032237;28;20420;-70
2022/06/22 05:44:55;;;;;;;10.57;4.20;;;18.20;99.90;;;;;;5031921;28;20474;-69
2022/06/22 05:47:27;;;;;;;5.27;3.50;;;18.40;99.90;;;;;;5032069;28;20527;-69
2022/06/22 05:50:01;;;;;;;3.80;2.90;;;18.50;99.90;;;;;;5032498;28;20485;-69
2022/06/22 05:52:35;;;;;;;4.50;3.00;;;18.80;99.90;;;;;;5031564;28;20449;-70
2022/06/22 05:55:07;;;;;;;7.73;3.07;;;19.00;99.90;;;;;;5031354;28;20847;-70
2022/06/22 05:57:39;;;;;;;6.57;3.10;;;19.20;99.90;;;;;;5031766;28;20420;-72
2022/06/22 06:00:14;;;;;;;6.43;2.90;;;19.20;99.90;;;;;;5032042;28;20832;-72
2022/06/22 06:02:46;;;;;;;4.00;2.97;;;19.10;99.90;;;;;;5031793;28;20435;-72
2022/06/22 06:05:21;;;;;;;4.80;3.17;;;19.00;99.90;;;;;;5031744;28;20424;-72
2022/06/22 06:07:50;;;;;;;3.03;2.83;;;18.90;99.90;;;;;;5031433;28;20451;-72
2022/06/22 06:10:21;;;;;;;5.80;3.33;;;18.90;99.90;;;;;;5032000;28;20873;-72
2022/06/22 06:12:57;;;;;;;10.40;2.93;;;18.90;99.90;;;;;;5031519;28;20794;-73
2022/06/22 06:15:25;;;;;;;3.40;2.77;;;19.00;99.90;;;;;;5031878;28;20460;-73
2022/06/22 06:17:57;;;;;;;6.40;3.70;;;19.10;99.90;;;;;;5031580;28;20844;-73
2022/06/22 06:20:29;;;;;;;5.37;3.33;;;19.30;99.90;;;;;;5031958;28;20459;-72
2022/06/22 06:23:00;;;;;;;5.33;3.40;;;19.60;99.90;;;;;;5031141;28;20510;-73
2022/06/22 06:28:23;;;;;;;5.13;3.30;;;19.70;99.90;;;;;;5031707;28;20599;-72
2022/06/22 06:30:54;;;;;;;17.23;3.60;;;19.70;99.90;;;;;;5031671;28;20442;-72
2022/06/22 06:33:25;;;;;;;8.30;3.17;;;19.60;99.90;;;;;;5031543;28;20427;-72
2022/06/22 06:35:57;;;;;;;3.43;3.13;;;19.60;99.90;;;;;;5031610;28;20474;-72
2022/06/22 06:38:28;;;;;;;4.13;3.50;;;19.70;99.90;;;;;;5031869;28;20420;-72
2022/06/22 06:41:01;;;;;;;10.40;3.57;;;19.90;99.90;;;;;;5031561;28;20469;-71
2022/06/22 06:43:40;;;;;;;5.90;3.10;;;20.00;99.90;;;;;;5031523;28;20456;-72
2022/06/22 06:46:15;;;;;;;15.07;3.53;;;20.20;99.90;;;;;;5031372;28;20838;-72
2022/06/22 06:48:45;;;;;;;5.10;3.03;;;20.30;99.90;;;;;;5031704;28;20505;-72
2022/06/22 06:51:17;;;;;;;5.10;3.20;;;20.50;99.90;;;;;;5031022;28;20473;-72
2022/06/22 06:53:49;;;;;;;5.03;3.17;;;20.60;99.90;;;;;;5031354;28;20453;-72
2022/06/22 06:56:21;;;;;;;4.00;3.20;;;20.70;99.90;;;;;;5031124;28;20872;-72
2022/06/22 06:58:50;;;;;;;7.40;3.40;;;20.90;99.90;;;;;;5031572;28;20442;-72
2022/06/22 07:01:21;;;;;;;5.83;3.37;;;21.10;99.90;;;;;;5031277;28;20473;-72
2022/06/22 07:03:50;;;;;;;5.40;3.33;;;21.30;99.90;;;;;;5031177;28;20450;-73
2022/06/22 07:06:18;;;;;;;5.10;3.80;;;21.60;99.90;;;;;;5031401;28;20454;-72
2022/06/22 07:08:49;;;;;;;7.80;3.20;;;21.70;99.90;;;;;;5034980;28;20996;-72
2022/06/22 07:11:31;;;;;;;4.23;3.67;;;21.90;99.90;;;;;;5035110;28;20480;-72
2022/06/22 07:14:02;;;;;;;5.40;3.20;;;22.10;99.90;;;;;;5034683;28;20467;-72
2022/06/22 07:16:29;;;;;;;7.20;2.70;;;22.20;99.90;;;;;;5035044;28;20480;-72
2022/06/22 07:19:01;;;;;;;3.60;3.00;;;22.40;99.90;;;;;;5034960;28;20487;-72
2022/06/22 07:21:37;;;;;;;5.10;3.07;;;22.50;99.90;;;;;;5034290;28;20526;-71
2022/06/22 07:24:08;;;;;;;8.90;3.20;;;22.70;99.90;;;;;;5034440;28;20855;-71
2022/06/22 07:26:45;;;;;;;5.03;2.80;;;22.90;99.90;;;;;;5034482;28;20445;-72
2022/06/22 07:29:17;;;;;;;8.43;2.53;;;23.00;99.90;;;;;;5034698;28;20453;-72
2022/06/22 07:31:48;;;;;;;5.67;2.80;;;23.30;99.90;;;;;;5034237;28;20818;-72
2022/06/22 07:34:20;;;;;;;7.73;3.30;;;23.40;99.90;;;;;;5034653;28;20450;-72
2022/06/22 07:36:53;;;;;;;5.83;3.13;;;23.40;99.90;;;;;;5034622;28;20507;-72
2022/06/22 07:39:25;;;;;;;4.27;2.60;;;23.30;99.90;;;;;;5034908;28;20494;-72
2022/06/22 07:41:51;;;;;;;3.73;2.60;;;23.40;99.90;;;;;;5034308;28;20469;-72
2022/06/22 07:44:20;;;;;;;4.67;2.63;;;23.50;99.90;;;;;;5034521;28;20453;-72
2022/06/22 07:46:53;;;;;;;4.97;2.80;;;23.60;99.90;;;;;;5034488;28;20507;-72
2022/06/22 07:49:24;;;;;;;3.80;2.80;;;23.90;99.90;;;;;;5034475;28;20449;-71
2022/06/22 07:51:55;;;;;;;3.00;2.67;;;23.90;99.90;;;;;;5034132;28;20469;-70
2022/06/22 07:54:29;;;;;;;8.90;2.43;;;24.00;99.90;;;;;;5034192;28;20507;-71
2022/06/22 07:57:04;;;;;;;7.33;2.20;;;24.10;99.90;;;;;;5034370;28;20460;-72
2022/06/22 07:59:34;;;;;;;3.27;3.00;;;24.30;99.90;;;;;;5034282;28;20449;-72
2022/06/22 08:02:06;;;;;;;4.33;2.60;;;24.50;99.90;;;;;;5034416;28;21032;-72
2022/06/22 08:04:37;;;;;;;3.37;2.53;;;24.60;99.90;;;;;;5034117;28;20460;-72
2022/06/22 08:07:10;;;;;;;5.33;2.70;;;24.80;99.90;;;;;;5034183;28;20559;-71
2022/06/22 08:09:44;;;;;;;5.73;2.40;;;25.10;99.90;;;;;;5034519;28;20449;-72
2022/06/22 08:12:20;;;;;;;8.10;2.40;;;25.30;99.90;;;;;;5033952;28;20539;-71
2022/06/22 08:14:49;;;;;;;6.03;2.70;;;25.40;99.90;;;;;;5033943;28;20457;-71
2022/06/22 08:17:21;;;;;;;4.50;2.40;;;25.40;99.90;;;;;;5034055;28;20453;-71
2022/06/22 08:19:48;;;;;;;2.90;2.20;;;25.60;99.90;;;;;;5033260;28;20503;-71
2022/06/22 08:22:16;;;;;;;4.10;2.40;;;25.80;99.90;;;;;;5033424;28;20989;-71
2022/06/22 08:24:47;;;;;;;4.93;2.50;;;26.00;99.90;;;;;;5033583;28;20500;-72
2022/06/22 08:27:17;;;;;;;3.83;2.43;;;26.20;99.90;;;;;;5033769;28;20911;-72
2022/06/22 08:29:45;;;;;;;3.60;2.67;;;26.20;99.90;;;;;;5033503;28;20449;-72
2022/06/22 08:32:17;;;;;;;2.37;2.20;;;26.40;99.90;;;;;;5033603;28;20993;-71
2022/06/22 08:34:49;;;;;;;5.30;2.40;;;26.30;99.90;;;;;;5033303;28;20813;-71
2022/06/22 08:37:23;;;;;;;9.10;2.50;;;26.50;99.90;;;;;;5033611;28;20441;-71
2022/06/22 08:39:54;;;;;;;2.33;2.13;;;26.60;99.90;;;;;;5033121;28;20453;-71
2022/06/22 08:42:29;;;;;;;10.77;2.53;;;26.70;99.90;;;;;;5033539;28;20957;-71
2022/06/22 08:45:08;;;;;;;7.67;2.80;;;26.80;99.90;;;;;;5033218;28;20449;-72
2022/06/22 08:48:03;;;;;;;3.40;2.10;;;27.10;99.90;;;;;;5033338;28;20711;-71
2022/06/22 08:50:55;;;;;;;11.20;2.60;;;27.40;99.90;;;;;;5033169;28;20473;-72
2022/06/22 08:53:59;;;;;;;5.40;2.20;;;27.50;99.90;;;;;;5032601;28;20937;-71
2022/06/22 08:56:39;;;;;;;3.97;2.00;;;27.60;99.90;;;;;;5030551;28;20540;-72
2022/06/22 08:59:49;;;;;;;3.53;2.20;;;27.60;99.90;;;;;;5033055;28;20999;-71
2022/06/22 09:02:34;;;;;;;3.07;2.40;;;27.70;99.90;;;;;;4997519;28;20898;-74
2022/06/22 09:05:28;;;;;;;5.33;2.30;;;27.90;99.90;;;;;;5033009;28;20449;-72
2022/06/22 09:08:19;;;;;;;9.73;2.30;;;28.00;99.90;;;;;;5032721;28;20515;-73
2022/06/22 09:11:00;;;;;;;4.27;2.53;;;28.40;99.90;;;;;;5033086;28;20465;-73
2022/06/22 09:13:52;;;;;;;4.70;2.20;;;28.50;99.90;;;;;;5032388;28;20464;-72
2022/06/22 09:16:35;;;;;;;6.10;2.23;;;28.50;99.90;;;;;;5032979;28;20453;-73
2022/06/22 09:19:22;;;;;;;3.57;1.93;;;28.60;99.90;;;;;;5032642;28;20926;-73
2022/06/22 09:22:02;;;;;;;4.17;2.30;;;28.90;99.90;;;;;;5032459;28;20480;-73
2022/06/22 09:24:39;;;;;;;3.93;2.27;;;29.10;99.90;;;;;;5032446;28;20453;-73
2022/06/22 09:27:15;;;;;;;2.60;2.30;;;29.30;99.90;;;;;;5033012;28;20444;-74
2022/06/22 09:29:58;;;;;;;4.13;2.10;;;29.40;99.90;;;;;;5031833;28;20437;-74
2022/06/22 09:32:49;;;;;;;2.63;2.20;;;29.60;99.90;;;;;;5032307;28;20503;-74
2022/06/22 09:35:39;;;;;;;5.13;2.60;;;29.40;99.50;;;;;;5032262;28;20938;-75
2022/06/22 09:38:43;;;;;;;3.30;2.90;;;29.20;99.80;;;;;;5032458;28;20446;-75
2022/06/22 09:41:17;;;;;;;8.50;2.43;;;29.40;99.00;;;;;;5032200;28;20469;-74
2022/06/22 09:44:12;;;;;;;3.37;2.33;;;29.40;98.30;;;;;;5032174;28;20502;-74
2022/06/22 09:47:16;;;;;;;2.70;2.27;;;29.50;98.20;;;;;;5032369;28;20449;-75
2022/06/22 09:50:04;;;;;;;4.97;2.33;;;29.60;98.00;;;;;;5032222;28;20916;-74
2022/06/22 09:53:01;;;;;;;3.80;2.77;;;29.50;96.90;;;;;;5029958;28;20485;-74
2022/06/22 09:56:23;;;;;;;6.00;2.60;;;29.50;97.80;;;;;;5032004;28;20857;-74
2022/06/22 09:59:11;;;;;;;3.47;2.60;;;29.90;98.40;;;;;;4971008;28;20448;-74
2022/06/22 10:01:47;;;;;;;5.87;2.53;;;30.10;96.50;;;;;;5031859;28;20495;-75
2022/06/22 10:04:53;;;;;;;3.40;2.60;;;30.20;96.10;;;;;;5031994;28;20530;-75
2022/06/22 10:07:33;;;;;;;8.57;2.60;;;30.20;95.60;;;;;;5031947;28;20456;-74
2022/06/22 10:10:13;;;;;;;2.40;2.20;;;30.40;94.40;;;;;;5031591;28;20485;-75
2022/06/22 10:13:12;;;;;;;2.60;2.23;;;30.30;92.80;;;;;;5031869;28;20984;-75
2022/06/22 10:15:49;;;;;;;2.30;2.00;;;30.50;92.10;;;;;;5032068;28;20457;-75
2022/06/22 10:18:36;;;;;;;2.67;2.37;;;30.50;91.70;;;;;;5031731;28;20499;-74
2022/06/22 10:21:12;;;;;;;2.50;2.30;;;30.90;92.00;;;;;;5031637;28;20475;-75
2022/06/22 10:24:04;;;;;;;2.57;1.83;;;31.00;90.90;;;;;;5031839;28;20491;-75
2022/06/22 10:26:44;;;;;;;2.20;1.80;;;31.10;88.60;;;;;;5031937;28;20499;-74
2022/06/22 10:29:39;;;;;;;5.47;1.90;;;31.20;89.60;;;;;;5031614;28;20481;-75
2022/06/22 10:32:28;;;;;;;2.93;2.10;;;31.30;91.20;;;;;;5032185;28;20504;-75
2022/06/22 10:35:01;;;;;;;7.60;2.30;;;31.50;92.10;;;;;;5031988;28;20507;-75
2022/06/22 10:37:46;;;;;;;6.77;1.90;;;31.50;88.40;;;;;;5031581;28;20449;-75
2022/06/22 10:46:21;;;;;;;3.77;1.90;;;30.90;87.70;;;;;;5012914;28;20592;-75
2022/06/22 10:49:20;;;;;;;2.87;2.00;;;31.00;90.60;;;;;;5035802;28;20483;-75
2022/06/22 10:52:05;;;;;;;4.73;1.83;;;31.10;90.40;;;;;;5035011;28;20469;-74
2022/06/22 10:54:51;;;;;;;5.53;2.40;;;31.50;88.10;;;;;;5035345;28;20535;-75
2022/06/22 10:57:47;;;;;;;4.53;2.10;;;31.50;86.70;;;;;;5035413;28;20453;-75
2022/06/22 11:00:22;;;;;;;3.93;1.90;;;31.20;85.60;;;;;;5035397;28;20511;-75
2022/06/22 11:03:22;;;;;;;4.57;1.90;;;31.10;87.60;;;;;;5035552;28;20440;-75
2022/06/22 11:06:00;;;;;;;3.33;2.10;;;31.00;87.50;;;;;;5035455;28;20868;-74
2022/06/22 11:08:41;;;;;;;6.43;2.03;;;31.40;88.80;;;;;;5035322;28;20481;-75
2022/06/22 11:11:23;;;;;;;3.57;1.77;;;31.60;82.60;;;;;;5035193;28;20532;-76
2022/06/22 11:14:09;;;;;;;4.27;1.97;;;31.70;85.40;;;;;;5035040;28;20449;-76
2022/06/22 11:16:51;;;;;;;2.43;1.90;;;31.60;85.10;;;;;;5035271;28;20528;-76
2022/06/22 11:19:52;;;;;;;2.00;1.80;;;31.00;85.10;;;;;;5035107;28;20495;-76
2022/06/22 11:22:31;;;;;;;4.20;2.23;;;30.80;84.40;;;;;;5034491;28;20468;-76
2022/06/22 11:31:35;;;;;;;8.63;1.80;;;31.10;84.50;;;;;;5036191;28;20472;-76
2022/06/22 11:34:37;;;;;;;3.67;1.80;;;31.40;81.80;;;;;;5034873;28;20502;-76
2022/06/22 11:37:13;;;;;;;1.80;1.70;;;31.30;80.30;;;;;;4978789;28;20847;-76
2022/06/22 11:40:00;;;;;;;3.10;1.87;;;31.20;78.30;;;;;;5014964;28;20856;-76
2022/06/22 11:42:41;;;;;;;2.23;1.50;;;30.90;78.40;;;;;;5015116;28;20502;-76
2022/06/22 11:49:00;;;;;;;2.20;2.00;;;30.80;79.70;;;;;;5014820;28;20477;-76
2022/06/22 11:51:43;;;;;;;6.33;1.63;;;31.00;78.50;;;;;;4972656;28;20989;-76
2022/06/22 11:54:32;;;;;;;1.77;1.67;;;31.00;77.70;;;;;;5013544;28;20454;-76
2022/06/22 11:57:14;;;;;;;2.10;1.90;;;30.90;77.50;;;;;;5014533;28;20485;-76
2022/06/22 11:59:55;;;;;;;2.17;1.70;;;31.00;77.40;;;;;;5014577;28;20500;-76
2022/06/22 12:02:42;;;;;;;2.43;1.70;;;31.00;77.90;;;;;;5014467;28;20852;-75
2022/06/22 12:05:25;;;;;;;1.70;1.50;;;31.20;75.90;;;;;;5014183;28;20449;-76
2022/06/22 12:08:17;;;;;;;2.07;1.80;;;31.40;74.90;;;;;;5014469;28;20454;-76
2022/06/22 12:10:50;;;;;;;3.93;1.50;;;31.20;72.80;;;;;;5014302;28;20474;-76
2022/06/22 12:15:04;;;;;;;1.70;1.60;;;31.20;75.80;;;;;;5014072;28;20517;-76
2022/06/22 12:16:38;;;;;;;2.20;1.70;;;31.20;74.80;;;;;;5013955;28;20438;-76
2022/06/22 12:19:18;;;;;;;6.43;1.67;;;31.10;73.20;;;;;;5014317;28;20434;-76
2022/06/22 12:22:16;;;;;;;1.70;1.57;;;30.90;73.70;;;;;;5013648;28;20540;-76
2022/06/22 12:24:58;;;;;;;1.70;1.40;;;31.00;73.50;;;;;;5013687;28;20882;-76
2022/06/22 12:27:29;;;;;;;3.90;1.60;;;31.10;73.00;;;;;;5013801;28;20488;-76
2022/06/22 12:30:12;;;;;;;1.60;1.50;;;30.80;71.50;;;;;;5014138;28;20482;-76
2022/06/22 12:32:46;;;;;;;4.10;1.60;;;31.00;70.60;;;;;;5013967;28;20461;-76
2022/06/22 12:35:32;;;;;;;3.83;1.50;;;31.50;71.70;;;;;;5014076;28;20573;-76
2022/06/22 12:38:04;;;;;;;1.43;1.33;;;32.20;69.80;;;;;;5033825;28;20445;-76
2022/06/22 12:40:40;;;;;;;1.57;1.23;;;33.00;68.40;;;;;;5033602;28;20478;-76
2022/06/22 12:43:25;;;;;;;1.60;1.50;;;33.40;67.70;;;;;;5033642;28;20452;-76
2022/06/22 12:45:55;;;;;;;2.27;1.50;;;34.00;65.30;;;;;;5033398;28;20540;-76
2022/06/22 12:48:48;;;;;;;1.20;1.10;;;34.20;62.70;;;;;;5033144;28;20441;-76
2022/06/22 12:51:23;;;;;;;2.10;1.40;;;34.30;64.30;;;;;;5033030;28;20522;-76
2022/06/22 12:53:55;;;;;;;2.53;1.30;;;34.60;62.20;;;;;;5033321;28;20445;-76
2022/06/22 12:56:27;;;;;;;1.60;1.20;;;34.60;60.20;;;;;;5033338;28;20465;-76
2022/06/22 12:58:59;;;;;;;5.67;1.20;;;34.40;58.80;;;;;;5033222;28;20822;-76
2022/06/22 13:01:27;;;;;;;1.47;1.30;;;34.60;57.50;;;;;;5032974;28;20523;-76
2022/06/22 13:03:57;;;;;;;2.27;1.30;;;34.70;58.60;;;;;;5032861;28;20449;-76
2022/06/22 13:06:26;;;;;;;2.33;1.37;;;34.70;56.40;;;;;;5032830;28;20937;-76
2022/06/22 13:08:55;;;;;;;2.70;1.20;;;34.70;56.90;;;;;;5033180;28;20477;-76
2022/06/22 13:11:26;;;;;;;2.80;1.20;;;34.90;57.90;;;;;;5032839;28;20473;-76
2022/06/22 13:14:06;;;;;;;5.83;1.10;;;35.10;57.80;;;;;;5032613;28;20937;-76
2022/06/22 13:16:41;;;;;;;1.87;1.33;;;35.10;55.60;;;;;;5033073;28;20437;-75
2022/06/22 13:19:16;;;;;;;2.03;1.70;;;35.20;56.70;;;;;;5032902;28;20780;-76
2022/06/22 13:21:50;;;;;;;1.90;1.10;;;35.20;55.90;;;;;;5032224;28;20465;-76
2022/06/22 13:24:25;;;;;;;1.70;1.20;;;35.40;55.90;;;;;;5032444;28;20487;-76
2022/06/22 13:27:03;;;;;;;1.93;1.10;;;35.60;54.10;;;;;;5032606;28;20936;-76
2022/06/22 13:29:33;;;;;;;1.57;1.20;;;35.90;53.10;;;;;;5032390;28;20485;-76
2022/06/22 13:32:06;;;;;;;1.93;1.40;;;36.00;53.80;;;;;;5032614;28;20527;-76
2022/06/22 13:34:39;;;;;;;2.17;1.13;;;36.10;55.90;;;;;;5032470;28;21149;-76
2022/06/22 13:37:20;;;;;;;2.23;1.50;;;36.00;55.60;;;;;;5032405;28;20449;-76
2022/06/22 13:40:00;;;;;;;1.70;1.60;;;36.20;55.90;;;;;;5032373;28;20452;-76
2022/06/22 13:42:55;;;;;;;1.47;1.30;;;35.70;56.10;;;;;;5012572;28;20935;-76
2022/06/22 13:45:48;;;;;;;2.13;1.33;;;35.70;56.30;;;;;;5012557;28;20463;-76
2022/06/22 13:48:23;;;;;;;2.13;1.50;;;35.40;56.30;;;;;;5012303;28;20454;-76
2022/06/22 13:51:18;;;;;;;1.73;1.20;;;35.20;55.10;;;;;;5012719;28;20469;-76
2022/06/22 13:54:15;;;;;;;3.43;1.23;;;35.40;56.30;;;;;;5012453;28;20454;-76